Time;durP1;ratioP1;P1;durP2;ratioP2;P2;SDS_P1;SDS_P2;PMS_P1;PMS_P2;Temp;Humidity;BMP_temperature;BMP_pressure;BME280_temperature;BME280_humidity;BME280_pressure;Samples;Min_cycle;Max_cycle;Signal;HPM_P1;HPM_P2
2023/12/12 00:00:28;;;;;;;11.05;3.10;;;7.20;99.90;;;;;;5009775;28;20506;-47
2023/12/12 00:02:54;;;;;;;6.68;2.53;;;7.20;99.90;;;;;;5014609;28;20053;-48
2023/12/12 00:05:19;;;;;;;9.30;3.20;;;7.20;99.90;;;;;;5009282;28;20107;-45
2023/12/12 00:07:45;;;;;;;8.00;3.25;;;7.20;99.90;;;;;;5009383;28;20010;-47
2023/12/12 00:10:11;;;;;;;8.00;2.65;;;7.20;99.90;;;;;;5007328;28;20038;-46
2023/12/12 00:12:36;;;;;;;11.35;3.08;;;7.10;99.90;;;;;;5009019;28;20029;-45
2023/12/12 00:15:02;;;;;;;6.70;2.92;;;7.10;99.90;;;;;;5008700;28;20117;-47
2023/12/12 00:17:28;;;;;;;4.75;2.10;;;7.20;99.90;;;;;;5009318;28;20040;-49
2023/12/12 00:19:53;;;;;;;6.22;2.65;;;7.10;99.90;;;;;;5009277;28;20435;-47
2023/12/12 00:22:19;;;;;;;13.63;3.53;;;7.10;99.90;;;;;;5009666;28;20483;-45
2023/12/12 00:24:44;;;;;;;5.68;2.35;;;7.10;99.90;;;;;;4991040;28;20064;-44
2023/12/12 00:27:10;;;;;;;14.18;2.65;;;7.10;99.90;;;;;;4991624;28;20108;-47
2023/12/12 00:29:36;;;;;;;8.98;3.17;;;7.10;99.90;;;;;;5009078;28;20041;-48
2023/12/12 00:32:02;;;;;;;5.25;2.80;;;7.10;99.90;;;;;;5008068;28;20018;-46
2023/12/12 00:34:28;;;;;;;7.30;2.75;;;7.10;99.90;;;;;;5008584;28;20034;-48
2023/12/12 00:36:54;;;;;;;4.78;2.70;;;7.10;99.90;;;;;;5009145;28;20033;-47
2023/12/12 00:39:19;;;;;;;6.07;2.38;;;7.10;99.90;;;;;;5009283;28;20117;-49
2023/12/12 00:41:45;;;;;;;7.07;2.85;;;7.10;99.90;;;;;;5008643;28;20479;-48
2023/12/12 00:44:11;;;;;;;7.57;2.88;;;7.10;99.90;;;;;;5008333;28;20018;-47
2023/12/12 00:46:36;;;;;;;7.35;3.15;;;7.00;99.90;;;;;;5008690;28;20022;-46
2023/12/12 00:49:02;;;;;;;10.45;3.40;;;7.00;99.90;;;;;;5008349;28;20056;-48
2023/12/12 00:51:29;;;;;;;8.15;2.80;;;7.00;99.90;;;;;;5008505;28;20364;-48
2023/12/12 00:53:54;;;;;;;14.40;3.35;;;7.00;99.90;;;;;;5008153;28;20022;-46
2023/12/12 00:56:20;;;;;;;8.07;3.53;;;7.00;99.90;;;;;;5007997;28;20085;-47
2023/12/12 00:58:45;;;;;;;8.80;3.33;;;7.00;99.90;;;;;;4990625;28;20076;-47
2023/12/12 01:01:13;;;;;;;15.73;3.83;;;7.00;99.90;;;;;;5008068;28;20023;-48
2023/12/12 01:03:39;;;;;;;10.70;2.95;;;7.00;99.90;;;;;;5008258;28;20073;-47
2023/12/12 01:06:05;;;;;;;11.75;4.38;;;7.00;99.90;;;;;;5007564;28;20452;-47
2023/12/12 01:08:31;;;;;;;9.23;3.85;;;7.00;99.90;;;;;;5008057;28;20549;-45
2023/12/12 01:10:56;;;;;;;7.93;4.28;;;7.00;99.90;;;;;;5008213;28;20021;-43
2023/12/12 01:13:22;;;;;;;6.80;3.67;;;7.00;99.90;;;;;;5006028;28;20073;-46
2023/12/12 01:15:47;;;;;;;8.55;4.20;;;7.00;99.90;;;;;;5004807;28;20137;-46
2023/12/12 01:18:13;;;;;;;9.98;4.43;;;7.00;99.90;;;;;;5005098;28;20037;-44
2023/12/12 01:20:39;;;;;;;15.98;4.70;;;7.00;99.90;;;;;;5005423;28;20027;-43
2023/12/12 01:23:04;;;;;;;14.00;5.07;;;6.90;99.90;;;;;;4987480;28;20376;-46
2023/12/12 01:25:31;;;;;;;16.10;5.07;;;6.90;99.90;;;;;;4983613;28;20023;-45
2023/12/12 01:27:56;;;;;;;12.70;4.63;;;6.90;99.90;;;;;;5009115;28;20499;-44
2023/12/12 01:30:22;;;;;;;15.88;5.20;;;7.00;99.90;;;;;;5005323;28;20033;-46
2023/12/12 01:32:48;;;;;;;10.18;4.20;;;6.90;99.90;;;;;;5005148;28;20026;-46
2023/12/12 01:35:13;;;;;;;11.10;4.22;;;6.90;99.90;;;;;;4983733;28;20033;-45
2023/12/12 01:37:39;;;;;;;9.82;4.70;;;7.00;99.90;;;;;;5002877;28;20077;-48
2023/12/12 01:40:07;;;;;;;8.73;4.28;;;7.00;99.90;;;;;;5004958;28;20052;-44
2023/12/12 01:42:32;;;;;;;11.52;4.32;;;7.00;99.90;;;;;;5005600;28;20018;-48
2023/12/12 01:44:58;;;;;;;10.95;4.10;;;6.90;99.90;;;;;;5016811;28;20029;-46
2023/12/12 01:47:24;;;;;;;9.35;3.85;;;7.00;99.90;;;;;;5008770;28;20021;-47
2023/12/12 01:49:50;;;;;;;14.82;4.65;;;7.00;99.90;;;;;;5008625;28;20054;-44
2023/12/12 01:52:16;;;;;;;11.18;3.67;;;7.00;99.90;;;;;;5008316;28;20061;-44
2023/12/12 01:54:46;;;;;;;8.27;3.60;;;6.90;99.90;;;;;;4990363;28;20033;-46
2023/12/12 01:57:13;;;;;;;11.48;3.75;;;6.90;99.90;;;;;;5002013;28;20049;-46
2023/12/12 01:59:39;;;;;;;7.43;3.40;;;6.90;99.90;;;;;;5008376;28;20074;-46
2023/12/12 02:02:06;;;;;;;13.90;3.67;;;6.90;99.90;;;;;;5008452;28;20420;-46
2023/12/12 02:04:32;;;;;;;10.80;3.65;;;6.90;99.90;;;;;;5007916;28;20097;-45
2023/12/12 02:07:02;;;;;;;7.85;3.53;;;6.90;99.90;;;;;;5007835;28;20475;-47
2023/12/12 02:09:28;;;;;;;6.78;2.70;;;6.90;99.90;;;;;;5008312;28;20040;-44
2023/12/12 02:11:54;;;;;;;14.95;3.85;;;7.00;99.90;;;;;;5008015;28;20530;-44
2023/12/12 02:14:20;;;;;;;9.35;3.20;;;7.00;99.90;;;;;;5007901;28;20029;-46
2023/12/12 02:16:45;;;;;;;9.10;2.45;;;7.00;99.90;;;;;;5008130;28;20022;-45
2023/12/12 02:19:12;;;;;;;9.48;2.53;;;6.90;99.90;;;;;;5006420;28;20025;-43
2023/12/12 02:21:37;;;;;;;11.48;2.67;;;7.00;99.90;;;;;;5008111;28;20037;-44
2023/12/12 02:24:03;;;;;;;5.93;2.17;;;6.90;99.90;;;;;;5007693;28;20030;-46
2023/12/12 02:26:29;;;;;;;8.73;2.72;;;7.00;99.90;;;;;;5007846;28;20076;-47
2023/12/12 02:28:55;;;;;;;8.70;3.03;;;7.00;99.90;;;;;;5008451;28;20498;-45
2023/12/12 02:31:21;;;;;;;5.15;2.42;;;7.00;99.90;;;;;;5008074;28;20018;-47
2023/12/12 02:33:47;;;;;;;9.85;2.88;;;7.00;99.90;;;;;;5007715;28;20030;-48
2023/12/12 02:36:12;;;;;;;6.10;2.20;;;6.90;99.90;;;;;;5006439;28;20133;-45
2023/12/12 02:38:38;;;;;;;6.82;2.72;;;7.00;99.90;;;;;;5007499;28;20076;-47
2023/12/12 02:41:04;;;;;;;6.85;2.78;;;6.90;99.90;;;;;;5008285;28;20069;-46
2023/12/12 02:43:30;;;;;;;9.68;2.50;;;7.00;99.90;;;;;;5007445;28;20106;-47
2023/12/12 02:45:56;;;;;;;10.90;3.22;;;6.90;99.90;;;;;;5006843;28;20020;-44
2023/12/12 02:48:21;;;;;;;4.82;1.92;;;6.90;99.90;;;;;;5007598;28;20484;-45
2023/12/12 02:50:47;;;;;;;7.18;2.60;;;6.90;99.90;;;;;;4987994;28;20034;-44
2023/12/12 02:53:13;;;;;;;11.80;3.00;;;6.90;99.90;;;;;;5007830;28;20045;-47
2023/12/12 02:55:38;;;;;;;10.25;2.38;;;6.90;99.90;;;;;;4985469;28;20512;-45
2023/12/12 02:58:04;;;;;;;10.90;4.03;;;6.90;99.90;;;;;;5006950;28;20479;-45
2023/12/12 03:00:29;;;;;;;8.93;2.15;;;6.90;99.90;;;;;;5007704;28;20025;-46
2023/12/12 03:02:55;;;;;;;7.70;2.35;;;6.90;99.90;;;;;;5007519;28;20562;-47
2023/12/12 03:05:21;;;;;;;9.27;3.00;;;6.90;99.90;;;;;;5006997;28;20088;-46
2023/12/12 03:07:46;;;;;;;7.60;2.78;;;6.90;99.90;;;;;;5014375;28;20029;-44
2023/12/12 03:10:12;;;;;;;12.43;3.58;;;6.90;99.90;;;;;;5014319;28;20391;-43
2023/12/12 03:12:37;;;;;;;8.73;2.22;;;6.90;99.90;;;;;;5007304;28;20501;-45
2023/12/12 03:15:03;;;;;;;9.25;2.67;;;6.90;99.90;;;;;;5006136;28;20026;-44
2023/12/12 03:17:29;;;;;;;7.63;3.00;;;6.90;99.90;;;;;;5007012;28;20029;-47
2023/12/12 03:19:55;;;;;;;11.02;2.42;;;6.90;99.90;;;;;;5006778;28;20026;-45
2023/12/12 03:22:21;;;;;;;12.60;3.25;;;6.90;99.90;;;;;;5006719;28;20502;-45
2023/12/12 03:24:47;;;;;;;5.22;2.88;;;6.90;99.90;;;;;;5006415;28;20046;-46
2023/12/12 03:27:13;;;;;;;12.93;3.10;;;6.90;99.90;;;;;;5006796;28;20303;-46
2023/12/12 03:29:38;;;;;;;8.05;2.83;;;6.90;99.90;;;;;;5006704;28;20026;-43
2023/12/12 03:32:04;;;;;;;7.63;2.28;;;6.90;99.90;;;;;;5006701;28;20025;-46
2023/12/12 03:34:30;;;;;;;8.40;2.97;;;6.90;99.90;;;;;;5006097;28;20125;-44
2023/12/12 03:36:56;;;;;;;11.75;3.83;;;6.80;99.90;;;;;;5006228;28;20030;-47
2023/12/12 03:39:21;;;;;;;11.40;3.95;;;6.80;99.90;;;;;;5006493;28;20025;-46
2023/12/12 03:41:47;;;;;;;9.38;3.08;;;6.80;99.90;;;;;;5006270;28;20026;-48
2023/12/12 03:44:12;;;;;;;9.02;3.25;;;6.80;99.90;;;;;;5006180;28;20101;-44
2023/12/12 03:46:38;;;;;;;8.45;3.20;;;6.80;99.90;;;;;;5006332;28;20025;-45
2023/12/12 03:49:04;;;;;;;8.23;3.65;;;6.80;99.90;;;;;;4987867;28;20025;-44
2023/12/12 03:51:30;;;;;;;12.93;3.13;;;6.80;99.90;;;;;;5006165;28;20026;-49
2023/12/12 03:53:55;;;;;;;6.63;2.80;;;6.80;99.90;;;;;;5006213;28;20114;-48
2023/12/12 03:56:21;;;;;;;11.20;3.33;;;6.80;99.90;;;;;;5006225;28;20476;-46
2023/12/12 03:58:47;;;;;;;7.78;3.38;;;6.80;99.90;;;;;;5009240;28;20038;-47
2023/12/12 04:01:13;;;;;;;12.23;3.53;;;6.80;99.90;;;;;;5009616;28;20040;-46
2023/12/12 04:03:40;;;;;;;8.23;2.80;;;6.80;99.90;;;;;;5009480;28;20076;-44
2023/12/12 04:06:06;;;;;;;10.13;3.17;;;6.80;99.90;;;;;;5008511;28;20101;-44
2023/12/12 04:08:32;;;;;;;10.63;3.05;;;6.80;99.90;;;;;;5009498;28;20105;-44
2023/12/12 04:10:58;;;;;;;14.10;3.20;;;6.80;99.90;;;;;;5008902;28;20034;-45
2023/12/12 04:13:23;;;;;;;11.82;3.65;;;6.70;99.90;;;;;;5009313;28;20033;-47
2023/12/12 04:15:49;;;;;;;14.25;3.30;;;6.70;99.90;;;;;;5008087;28;20034;-48
2023/12/12 04:18:15;;;;;;;9.25;2.67;;;6.70;99.90;;;;;;5008867;28;20018;-43
2023/12/12 04:20:40;;;;;;;7.85;2.70;;;6.70;99.90;;;;;;5008994;28;20061;-43
2023/12/12 04:23:06;;;;;;;17.05;4.25;;;6.70;99.90;;;;;;5008990;28;20100;-43
2023/12/12 04:25:32;;;;;;;12.13;2.67;;;6.70;99.90;;;;;;5008507;28;20490;-44
2023/12/12 04:27:58;;;;;;;9.65;3.17;;;6.70;99.90;;;;;;5008705;28;20050;-44
2023/12/12 04:30:24;;;;;;;11.50;2.53;;;6.70;99.90;;;;;;5008936;28;20025;-44
2023/12/12 04:32:49;;;;;;;9.93;2.58;;;6.70;99.90;;;;;;5008632;28;20080;-44
2023/12/12 04:35:16;;;;;;;13.35;2.92;;;6.70;99.90;;;;;;5008551;28;20328;-43
2023/12/12 04:37:42;;;;;;;7.80;3.05;;;6.70;99.90;;;;;;4987917;28;20038;-45
2023/12/12 04:40:08;;;;;;;12.30;3.03;;;6.70;99.90;;;;;;5007904;28;20039;-45
2023/12/12 04:42:33;;;;;;;9.80;2.70;;;6.70;99.90;;;;;;5008724;28;20030;-45
2023/12/12 04:44:59;;;;;;;10.70;2.80;;;6.70;99.90;;;;;;4989060;28;20045;-44
2023/12/12 04:47:25;;;;;;;11.25;2.78;;;6.70;99.90;;;;;;5008793;28;20022;-45
2023/12/12 04:49:51;;;;;;;7.30;2.78;;;6.70;99.90;;;;;;4990731;28;20029;-43
2023/12/12 04:52:16;;;;;;;4.53;1.90;;;6.70;99.90;;;;;;5008597;28;20072;-45
2023/12/12 04:54:42;;;;;;;5.22;2.42;;;6.70;99.90;;;;;;5007938;28;20034;-44
2023/12/12 04:57:08;;;;;;;5.05;2.30;;;6.60;99.90;;;;;;5008542;28;20025;-45
2023/12/12 04:59:33;;;;;;;7.15;2.75;;;6.70;99.90;;;;;;5008543;28;20022;-44
2023/12/12 05:01:59;;;;;;;10.80;2.80;;;6.60;99.90;;;;;;5008342;28;20157;-49
2023/12/12 05:04:25;;;;;;;4.15;2.60;;;6.70;99.90;;;;;;5007700;28;20068;-44
2023/12/12 05:06:50;;;;;;;7.18;2.78;;;6.70;99.90;;;;;;5008531;28;20045;-47
2023/12/12 05:09:17;;;;;;;8.77;3.03;;;6.60;99.90;;;;;;5008519;28;20041;-45
2023/12/12 05:11:42;;;;;;;12.77;3.30;;;6.60;99.90;;;;;;5023900;28;20021;-48
2023/12/12 05:14:10;;;;;;;8.82;3.35;;;6.60;99.90;;;;;;5016857;28;20629;-48
2023/12/12 05:16:36;;;;;;;12.73;4.30;;;6.60;99.90;;;;;;5008486;28;20029;-48
2023/12/12 05:19:02;;;;;;;17.77;4.22;;;6.60;99.90;;;;;;5007753;28;20022;-45
2023/12/12 05:21:28;;;;;;;8.57;3.15;;;6.60;99.90;;;;;;5008473;28;20025;-47
2023/12/12 05:23:53;;;;;;;12.63;3.17;;;6.50;99.90;;;;;;5008051;28;20028;-47
2023/12/12 05:26:19;;;;;;;12.18;4.00;;;6.50;99.90;;;;;;5007852;28;20114;-47
2023/12/12 05:28:46;;;;;;;9.02;3.45;;;6.50;99.90;;;;;;5008176;28;20054;-44
2023/12/12 05:31:11;;;;;;;5.75;3.20;;;6.40;99.90;;;;;;5007915;28;20022;-45
2023/12/12 05:33:37;;;;;;;18.25;3.65;;;6.40;99.90;;;;;;5008557;28;20470;-45
2023/12/12 05:36:03;;;;;;;10.15;3.55;;;6.40;99.90;;;;;;5007701;28;20443;-45
2023/12/12 05:38:29;;;;;;;11.73;3.78;;;6.40;99.90;;;;;;5007885;28;20018;-43
2023/12/12 05:40:56;;;;;;;10.30;4.22;;;6.30;99.90;;;;;;5007986;28;20022;-47
2023/12/12 05:43:21;;;;;;;12.18;3.80;;;6.20;99.90;;;;;;5008065;28;20057;-47
2023/12/12 05:45:47;;;;;;;13.73;4.32;;;6.20;99.90;;;;;;4990365;28;20061;-45
2023/12/12 05:48:13;;;;;;;7.72;4.03;;;6.20;99.90;;;;;;5007791;28;20174;-44
2023/12/12 05:50:39;;;;;;;12.88;3.65;;;6.20;99.90;;;;;;5008210;28;20491;-47
2023/12/12 05:53:04;;;;;;;11.77;4.28;;;6.10;99.90;;;;;;4990444;28;20294;-48
2023/12/12 05:55:30;;;;;;;8.80;3.95;;;6.10;99.90;;;;;;5006197;28;20038;-46
2023/12/12 05:57:56;;;;;;;9.45;4.63;;;6.10;99.90;;;;;;5007403;28;20056;-44
2023/12/12 06:00:21;;;;;;;12.27;4.35;;;6.10;99.90;;;;;;5007427;28;20018;-45
2023/12/12 06:02:48;;;;;;;14.23;4.40;;;6.10;99.90;;;;;;5010008;28;20636;-48
2023/12/12 06:05:13;;;;;;;18.83;4.57;;;6.00;99.90;;;;;;4994437;28;20415;-45
2023/12/12 06:07:41;;;;;;;10.77;4.32;;;6.10;99.90;;;;;;5008107;28;20026;-47
2023/12/12 06:10:08;;;;;;;22.08;4.50;;;6.10;99.90;;;;;;5007470;28;20112;-48
2023/12/12 06:12:34;;;;;;;12.85;3.78;;;6.00;99.90;;;;;;5007294;28;20092;-47
2023/12/12 06:15:00;;;;;;;19.63;4.53;;;6.00;99.90;;;;;;5006566;28;20049;-46
2023/12/12 06:17:26;;;;;;;12.82;3.97;;;6.10;99.90;;;;;;5007255;28;20025;-44
2023/12/12 06:19:52;;;;;;;11.05;4.18;;;6.00;99.90;;;;;;5007924;28;20101;-45
2023/12/12 06:22:17;;;;;;;21.08;5.40;;;6.00;99.90;;;;;;5008609;28;20527;-45
2023/12/12 06:24:43;;;;;;;11.82;3.60;;;6.00;99.90;;;;;;5007220;28;20057;-44
2023/12/12 06:27:10;;;;;;;13.00;4.88;;;6.00;99.90;;;;;;5007393;28;20337;-46
2023/12/12 06:29:35;;;;;;;15.10;3.88;;;6.00;99.90;;;;;;4975150;28;20026;-46
2023/12/12 06:32:01;;;;;;;16.50;4.30;;;5.90;99.90;;;;;;4993641;28;20096;-43
2023/12/12 06:34:27;;;;;;;14.27;4.53;;;5.90;99.90;;;;;;5010717;28;20036;-45
2023/12/12 06:36:53;;;;;;;15.13;4.18;;;5.90;99.90;;;;;;5010926;28;20108;-44
2023/12/12 06:39:18;;;;;;;8.52;4.18;;;5.90;99.90;;;;;;5010858;28;20026;-48
2023/12/12 06:41:44;;;;;;;8.55;3.90;;;5.90;99.90;;;;;;5011879;28;20435;-44
2023/12/12 06:44:10;;;;;;;19.20;4.40;;;5.90;99.90;;;;;;4999701;28;20018;-47
2023/12/12 06:46:36;;;;;;;10.70;3.65;;;5.80;99.90;;;;;;5011413;28;20112;-45
2023/12/12 06:49:03;;;;;;;8.43;3.80;;;5.80;99.90;;;;;;5014068;28;20114;-45
2023/12/12 06:51:29;;;;;;;13.05;4.05;;;5.70;99.90;;;;;;5016884;28;20571;-44
2023/12/12 06:53:57;;;;;;;10.05;4.20;;;5.70;99.90;;;;;;5013899;28;20101;-44
2023/12/12 06:56:23;;;;;;;9.95;4.13;;;5.70;99.90;;;;;;4994354;28;20025;-44
2023/12/12 06:58:48;;;;;;;9.48;3.78;;;5.70;99.90;;;;;;5010465;28;20030;-45
2023/12/12 07:01:14;;;;;;;17.92;4.45;;;5.60;99.90;;;;;;5007650;28;20049;-46
2023/12/12 07:03:40;;;;;;;12.40;3.90;;;5.60;99.90;;;;;;5004513;28;20423;-47
2023/12/12 07:06:06;;;;;;;6.15;3.55;;;5.60;99.90;;;;;;5010241;28;20103;-45
2023/12/12 07:08:32;;;;;;;11.90;4.32;;;5.60;99.90;;;;;;5010570;28;20033;-43
2023/12/12 07:10:58;;;;;;;13.68;4.47;;;5.60;99.90;;;;;;5010384;28;20494;-44
2023/12/12 07:13:24;;;;;;;6.43;4.13;;;5.50;99.90;;;;;;5010049;28;20538;-48
2023/12/12 07:15:49;;;;;;;10.35;4.53;;;5.50;99.90;;;;;;5009561;28;20030;-47
2023/12/12 07:18:15;;;;;;;7.55;4.22;;;5.50;99.90;;;;;;4991901;28;20026;-48
2023/12/12 07:20:41;;;;;;;12.85;4.55;;;5.40;99.90;;;;;;5009704;28;20112;-44
2023/12/12 07:23:07;;;;;;;9.57;4.75;;;5.40;99.90;;;;;;5009893;28;20126;-47
2023/12/12 07:25:34;;;;;;;10.93;5.20;;;5.40;99.90;;;;;;5008773;28;20022;-44
2023/12/12 07:28:00;;;;;;;15.93;4.82;;;5.40;99.90;;;;;;5009227;28;20036;-44
2023/12/12 07:30:27;;;;;;;11.52;4.30;;;5.30;99.90;;;;;;5008972;28;20369;-44
2023/12/12 07:32:56;;;;;;;8.85;4.13;;;5.30;99.90;;;;;;5009118;28;20026;-43
2023/12/12 07:35:23;;;;;;;16.95;5.13;;;5.30;99.90;;;;;;5007801;28;20022;-43
2023/12/12 07:37:48;;;;;;;9.38;4.70;;;5.30;99.90;;;;;;4993066;28;20018;-45
2023/12/12 07:40:14;;;;;;;15.55;5.00;;;5.20;99.90;;;;;;5007452;28;20029;-42
2023/12/12 07:42:39;;;;;;;11.45;5.13;;;5.20;99.90;;;;;;5011675;28;20435;-44
2023/12/12 07:45:07;;;;;;;25.60;5.82;;;5.20;99.90;;;;;;5008416;28;20122;-43
2023/12/12 07:47:33;;;;;;;10.02;4.63;;;5.30;99.90;;;;;;5009010;28;20522;-42
2023/12/12 07:49:59;;;;;;;10.48;4.53;;;5.20;99.90;;;;;;5008879;28;20034;-44
2023/12/12 07:52:26;;;;;;;11.35;5.63;;;5.20;99.90;;;;;;5009666;28;20105;-44
2023/12/12 07:54:51;;;;;;;16.30;5.30;;;5.30;99.90;;;;;;5009300;28;20025;-45
2023/12/12 07:57:17;;;;;;;10.65;4.82;;;5.30;99.90;;;;;;5008346;28;20026;-42
2023/12/12 07:59:44;;;;;;;17.55;5.60;;;5.30;99.90;;;;;;5008868;28;20033;-43
2023/12/12 08:02:10;;;;;;;10.57;5.15;;;5.30;99.90;;;;;;5008929;28;20022;-43
2023/12/12 08:04:36;;;;;;;13.95;5.57;;;5.30;99.90;;;;;;5007954;28;20030;-45
2023/12/12 08:07:02;;;;;;;17.65;5.88;;;5.40;99.90;;;;;;5008365;28;20053;-43
2023/12/12 08:09:31;;;;;;;17.20;5.80;;;5.40;99.90;;;;;;5008209;28;20067;-45
2023/12/12 08:11:57;;;;;;;11.10;6.03;;;5.40;99.90;;;;;;5004254;28;20401;-47
2023/12/12 08:14:23;;;;;;;9.32;5.55;;;5.40;99.90;;;;;;5007502;28;20418;-42
2023/12/12 08:16:48;;;;;;;15.52;5.60;;;5.50;99.90;;;;;;5008359;28;20113;-44
2023/12/12 08:19:15;;;;;;;14.23;6.10;;;5.50;99.90;;;;;;5008610;28;20074;-43
2023/12/12 08:21:41;;;;;;;10.23;4.95;;;5.50;99.90;;;;;;5008443;28;20022;-44
2023/12/12 08:24:07;;;;;;;6.38;4.55;;;5.60;99.90;;;;;;5007967;28;20489;-45
2023/12/12 08:26:43;;;;;;;15.80;5.97;;;5.60;99.90;;;;;;4989666;28;20495;-45
2023/12/12 08:29:09;;;;;;;15.07;6.63;;;5.60;99.90;;;;;;5007756;28;20033;-45
2023/12/12 08:31:35;;;;;;;19.42;7.03;;;5.60;99.90;;;;;;5008245;28;20034;-45
2023/12/12 08:34:02;;;;;;;19.40;6.68;;;5.70;99.90;;;;;;5008279;28;20105;-44
2023/12/12 08:36:27;;;;;;;24.08;6.57;;;5.70;99.90;;;;;;5008112;28;20022;-46
2023/12/12 08:38:53;;;;;;;14.48;6.57;;;5.70;99.90;;;;;;5008262;28;20030;-46
2023/12/12 08:41:20;;;;;;;18.10;7.00;;;5.80;99.90;;;;;;5008210;28;20068;-45
2023/12/12 08:43:46;;;;;;;10.23;5.82;;;5.80;99.90;;;;;;5008467;28;20472;-47
2023/12/12 08:46:11;;;;;;;14.40;6.07;;;5.80;99.90;;;;;;5007337;28;20022;-45
2023/12/12 08:48:37;;;;;;;13.20;5.78;;;5.80;99.90;;;;;;5005820;28;20044;-47
2023/12/12 08:51:03;;;;;;;13.15;5.70;;;5.90;99.90;;;;;;5008821;28;20423;-45
2023/12/12 08:53:29;;;;;;;10.23;5.18;;;5.90;99.90;;;;;;5008039;28;20054;-46
2023/12/12 08:55:55;;;;;;;18.08;6.45;;;5.90;99.90;;;;;;5008232;28;20022;-46
2023/12/12 08:58:23;;;;;;;10.95;5.50;;;5.90;99.90;;;;;;5008620;28;20045;-45
2023/12/12 09:00:51;;;;;;;20.45;7.25;;;6.00;99.90;;;;;;4990371;28;20028;-44
2023/12/12 09:03:17;;;;;;;15.25;6.25;;;6.00;99.90;;;;;;5007926;28;20024;-47
2023/12/12 09:05:42;;;;;;;14.90;6.05;;;6.10;99.90;;;;;;5010133;28;20407;-45
2023/12/12 09:08:08;;;;;;;16.05;6.38;;;6.20;99.90;;;;;;5008482;28;20114;-44
2023/12/12 09:10:33;;;;;;;12.93;5.68;;;6.20;99.90;;;;;;5008091;28;20021;-45
2023/12/12 09:12:59;;;;;;;11.65;5.45;;;6.20;99.90;;;;;;5007791;28;20033;-44
2023/12/12 09:15:25;;;;;;;12.50;5.80;;;6.30;99.90;;;;;;5005980;28;20053;-47
2023/12/12 09:17:50;;;;;;;15.27;6.53;;;6.30;99.90;;;;;;5007889;28;20026;-46
2023/12/12 09:20:17;;;;;;;9.85;5.32;;;6.40;99.90;;;;;;5007708;28;20026;-43
2023/12/12 09:22:42;;;;;;;11.32;5.22;;;6.40;99.90;;;;;;5007872;28;20037;-46
2023/12/12 09:25:08;;;;;;;17.80;5.95;;;6.50;99.90;;;;;;5007250;28;20125;-45
2023/12/12 09:27:33;;;;;;;15.65;5.47;;;6.60;99.90;;;;;;5007641;28;20409;-44
2023/12/12 09:29:59;;;;;;;10.52;5.82;;;6.60;99.90;;;;;;5011620;28;20021;-45
2023/12/12 09:32:25;;;;;;;13.25;6.03;;;6.60;99.90;;;;;;5007308;28;20550;-44
2023/12/12 09:34:50;;;;;;;11.00;5.28;;;6.70;99.90;;;;;;5007096;28;20018;-44
2023/12/12 09:37:16;;;;;;;9.00;4.90;;;6.70;99.90;;;;;;5007593;28;20022;-47
2023/12/12 09:39:42;;;;;;;10.43;5.28;;;6.80;99.90;;;;;;5007751;28;20029;-45
2023/12/12 09:42:12;;;;;;;8.73;5.88;;;6.90;99.90;;;;;;5010260;28;20049;-49
2023/12/12 09:44:41;;;;;;;;;;;7.00;99.90;;;;;;5010234;28;20022;-45
2023/12/12 09:47:08;;;;;;;10.65;5.07;;;7.10;99.90;;;;;;5007836;28;20326;-46
2023/12/12 09:49:35;;;;;;;11.18;5.15;;;7.20;99.90;;;;;;5007823;28;20038;-45
2023/12/12 09:52:02;;;;;;;8.93;4.93;;;7.30;99.90;;;;;;4992700;28;20336;-48
2023/12/12 09:54:28;;;;;;;12.48;5.60;;;7.40;99.90;;;;;;5007424;28;20109;-44
2023/12/12 09:56:54;;;;;;;8.30;4.45;;;7.40;99.90;;;;;;4992912;28;20424;-48
2023/12/12 09:59:20;;;;;;;13.63;5.45;;;7.50;99.90;;;;;;5007434;28;20149;-47
2023/12/12 10:01:49;;;;;;;6.78;4.65;;;7.50;99.90;;;;;;5007515;28;20073;-48
2023/12/12 10:04:18;;;;;;;10.30;4.40;;;7.50;99.90;;;;;;5006493;28;20101;-47
2023/12/12 10:06:50;;;;;;;12.73;6.05;;;7.40;99.90;;;;;;5011339;28;20018;-45
2023/12/12 10:09:15;;;;;;;9.70;5.30;;;7.50;99.90;;;;;;5008578;28;20017;-46
2023/12/12 10:11:41;;;;;;;10.98;6.07;;;7.50;99.90;;;;;;5011177;28;20236;-46
2023/12/12 10:14:08;;;;;;;8.75;5.30;;;7.50;99.90;;;;;;5011227;28;20036;-46
2023/12/12 10:16:34;;;;;;;12.00;5.80;;;7.60;99.90;;;;;;5010589;28;20022;-45
2023/12/12 10:19:01;;;;;;;18.52;5.93;;;7.60;99.90;;;;;;5010856;28;20022;-47
2023/12/12 10:21:28;;;;;;;13.20;6.25;;;7.70;99.90;;;;;;5011114;28;20510;-46
2023/12/12 10:23:54;;;;;;;12.90;5.82;;;7.60;99.90;;;;;;5011073;28;20022;-49
2023/12/12 10:26:38;;;;;;;10.93;5.57;;;7.60;99.90;;;;;;5010584;28;20076;-46
2023/12/12 10:29:05;;;;;;;10.93;6.20;;;7.60;99.90;;;;;;5011213;28;20419;-48
2023/12/12 10:31:30;;;;;;;9.98;5.82;;;7.50;99.90;;;;;;5010729;28;20086;-44
2023/12/12 10:33:57;;;;;;;9.27;6.18;;;7.50;99.90;;;;;;5010792;28;20017;-48
2023/12/12 10:36:24;;;;;;;11.38;5.88;;;7.50;99.90;;;;;;5010359;28;20091;-47
2023/12/12 10:38:50;;;;;;;11.57;6.05;;;7.40;99.90;;;;;;5009712;28;20052;-47
2023/12/12 10:41:17;;;;;;;11.70;5.72;;;7.40;99.90;;;;;;4990250;28;20065;-48
2023/12/12 10:43:45;;;;;;;10.00;6.20;;;7.40;99.90;;;;;;5010886;28;20022;-46
2023/12/12 10:46:16;;;;;;;15.43;7.00;;;7.40;99.90;;;;;;5010016;28;20030;-47
2023/12/12 10:48:43;;;;;;;9.23;5.22;;;7.40;99.90;;;;;;5014407;28;20032;-48
2023/12/12 10:51:18;;;;;;;9.73;6.03;;;7.60;99.90;;;;;;5010482;28;20530;-44
2023/12/12 10:53:51;;;;;;;9.27;6.45;;;7.60;99.90;;;;;;5013972;28;20040;-47
2023/12/12 10:56:17;;;;;;;10.38;5.80;;;7.60;99.90;;;;;;5006207;28;20105;-45
2023/12/12 10:58:43;;;;;;;8.00;5.70;;;7.70;99.90;;;;;;5010027;28;20112;-47
2023/12/12 11:01:11;;;;;;;8.27;4.85;;;7.80;99.90;;;;;;5009871;28;20446;-48
2023/12/12 11:03:37;;;;;;;9.23;5.70;;;7.80;99.90;;;;;;5010243;28;20044;-47
2023/12/12 11:06:04;;;;;;;10.13;5.75;;;7.80;99.90;;;;;;5008406;28;20014;-45
2023/12/12 11:08:30;;;;;;;12.82;6.05;;;7.90;99.90;;;;;;5008600;28;20081;-47
2023/12/12 11:10:57;;;;;;;14.20;6.65;;;8.00;99.90;;;;;;5008479;28;20034;-44
2023/12/12 11:13:27;;;;;;;10.30;6.18;;;8.00;99.90;;;;;;5010094;28;20033;-47
2023/12/12 11:15:56;;;;;;;14.57;7.10;;;8.00;99.90;;;;;;5008966;28;20065;-44
2023/12/12 11:18:22;;;;;;;12.90;6.88;;;8.00;99.90;;;;;;5009094;28;20046;-47
2023/12/12 11:20:48;;;;;;;14.50;7.32;;;8.00;99.90;;;;;;5007687;28;20242;-45
2023/12/12 11:23:42;;;;;;;9.75;6.13;;;7.90;99.90;;;;;;5009422;28;20020;-45
2023/12/12 11:26:10;;;;;;;11.35;6.57;;;8.00;99.90;;;;;;4988034;28;20372;-48
2023/12/12 11:28:38;;;;;;;9.30;6.70;;;8.00;99.90;;;;;;5016240;28;20052;-44
2023/12/12 11:31:04;;;;;;;13.38;7.63;;;8.00;99.90;;;;;;5013183;28;20030;-47
2023/12/12 11:33:30;;;;;;;11.23;7.75;;;8.00;99.90;;;;;;5010077;28;20033;-43
2023/12/12 11:35:56;;;;;;;10.27;6.93;;;8.10;99.90;;;;;;5008959;28;20026;-45
2023/12/12 11:38:34;;;;;;;14.00;7.50;;;8.20;99.90;;;;;;5009808;28;20030;-45
2023/12/12 11:41:09;;;;;;;11.80;7.20;;;8.30;99.90;;;;;;4975908;28;20033;-45
2023/12/12 11:43:36;;;;;;;13.80;7.70;;;8.30;99.90;;;;;;5009771;28;20538;-46
2023/12/12 11:46:21;;;;;;;17.35;9.13;;;8.40;99.90;;;;;;5009515;28;20173;-43
2023/12/12 11:48:47;;;;;;;10.57;6.50;;;8.30;99.90;;;;;;5014096;28;20118;-44
2023/12/12 11:51:34;;;;;;;15.68;7.35;;;8.40;99.90;;;;;;5009550;28;20078;-45
2023/12/12 11:54:06;;;;;;;14.20;8.95;;;8.30;99.90;;;;;;5013801;28;20097;-44
2023/12/12 11:56:32;;;;;;;16.88;8.50;;;8.30;99.90;;;;;;5009141;28;20033;-44
2023/12/12 11:59:02;;;;;;;11.90;7.47;;;8.20;99.90;;;;;;5009167;28;20034;-44
2023/12/12 12:01:28;;;;;;;12.63;7.75;;;8.10;99.90;;;;;;4989468;28;20023;-45
2023/12/12 12:03:54;;;;;;;17.20;8.13;;;8.00;99.90;;;;;;5009226;28;20080;-45
2023/12/12 12:06:20;;;;;;;12.82;7.85;;;8.00;99.90;;;;;;5009043;28;20080;-44
2023/12/12 12:08:47;;;;;;;11.95;7.50;;;8.00;99.90;;;;;;5013716;28;20018;-45
2023/12/12 12:11:13;;;;;;;11.18;6.82;;;8.10;99.90;;;;;;5013954;28;20041;-46
2023/12/12 12:13:42;;;;;;;11.20;6.60;;;8.10;99.90;;;;;;5009131;28;20403;-48
2023/12/12 12:16:11;;;;;;;11.20;6.95;;;8.10;99.90;;;;;;5013077;28;20057;-45
2023/12/12 12:18:38;;;;;;;9.85;6.32;;;8.10;99.90;;;;;;5009194;28;20109;-45
2023/12/12 12:21:07;;;;;;;9.65;5.38;;;8.20;99.90;;;;;;5013707;28;20106;-45
2023/12/12 12:23:39;;;;;;;9.55;5.68;;;8.20;99.90;;;;;;5008843;28;20514;-45
2023/12/12 12:26:04;;;;;;;11.00;6.20;;;8.20;99.90;;;;;;5008325;28;20129;-45
2023/12/12 12:28:34;;;;;;;9.43;6.18;;;8.20;99.90;;;;;;5008368;28;20562;-44
2023/12/12 12:31:04;;;;;;;12.00;6.40;;;8.30;99.90;;;;;;5013709;28;20106;-47
2023/12/12 12:33:31;;;;;;;8.00;5.38;;;8.30;99.90;;;;;;5012435;28;20053;-44
2023/12/12 12:35:57;;;;;;;11.90;6.10;;;8.30;99.90;;;;;;5007747;28;20104;-46
2023/12/12 12:38:23;;;;;;;12.63;6.57;;;8.40;99.90;;;;;;4989914;28;20559;-43
2023/12/12 12:40:49;;;;;;;11.98;6.70;;;8.40;99.90;;;;;;5003695;28;20014;-47
2023/12/12 12:43:17;;;;;;;11.75;7.03;;;8.40;99.90;;;;;;5008609;28;20130;-44
2023/12/12 12:45:45;;;;;;;14.25;7.20;;;8.40;99.90;;;;;;5008139;28;20030;-47